createdAt,value
2022-12-08T00:01:54.766Z,99.60
2022-12-08T00:04:22.774Z,99.80
2022-12-08T00:07:08.208Z,99.70
2022-12-08T00:09:39.466Z,99.70
2022-12-08T00:12:09.618Z,99.80
2022-12-08T00:14:39.662Z,99.70
2022-12-08T00:17:11.094Z,99.80
2022-12-08T00:19:40.068Z,99.90
2022-12-08T00:22:09.143Z,99.80
2022-12-08T00:24:39.615Z,99.80
2022-12-08T00:27:08.076Z,99.90
2022-12-08T00:29:35.948Z,99.80
2022-12-08T00:32:03.892Z,99.70
2022-12-08T00:34:33.796Z,99.70
2022-12-08T00:37:01.893Z,99.80
2022-12-08T00:39:29.778Z,99.70
2022-12-08T00:42:15.809Z,99.80
2022-12-08T00:44:45.392Z,99.60
2022-12-08T00:47:14.382Z,99.60
2022-12-08T00:49:43.685Z,99.70
2022-12-08T00:52:12.626Z,99.70
2022-12-08T00:54:40.497Z,99.60
2022-12-08T00:57:08.357Z,99.80
2022-12-08T00:59:36.227Z,99.80
2022-12-08T01:02:04.129Z,99.80
2022-12-08T01:04:32.200Z,99.80
2022-12-08T22:37:11.626Z,99.90
2022-12-08T22:39:39.566Z,99.90
2022-12-08T22:42:07.514Z,99.90
2022-12-08T22:44:35.554Z,99.90
2022-12-08T22:47:03.534Z,99.90
2022-12-08T22:49:31.682Z,99.90
2022-12-08T22:51:59.623Z,99.90
2022-12-08T22:54:28.869Z,99.90
2022-12-08T22:56:56.765Z,99.90
2022-12-08T22:59:24.905Z,99.90
2022-12-08T23:01:53.980Z,99.90
2022-12-08T23:04:22.054Z,99.90
2022-12-08T23:06:50.319Z,99.90
2022-12-08T23:09:18.283Z,99.60
2022-12-08T23:11:47.606Z,98.80
2022-12-08T23:14:15.638Z,98.70
2022-12-08T23:16:43.639Z,98.50
2022-12-08T23:19:12.407Z,98.90
2022-12-08T23:21:40.628Z,99.30
2022-12-08T23:24:08.669Z,99.20
2022-12-08T23:26:36.653Z,99.10
2022-12-08T23:29:06.298Z,99.50
2022-12-08T23:31:34.280Z,99.70
2022-12-08T23:34:03.521Z,99.60
2022-12-08T23:36:31.660Z,99.70
2022-12-08T23:38:59.736Z,99.80
2022-12-08T23:41:27.727Z,99.90
2022-12-08T23:43:55.966Z,99.90
2022-12-08T23:46:25.494Z,99.70
2022-12-08T23:48:53.724Z,99.70
2022-12-08T23:51:21.994Z,99.90
2022-12-08T23:53:50.018Z,99.90
2022-12-08T23:56:18.847Z,99.90
2022-12-08T23:58:46.827Z,99.90
